ペトロパブロフスク・カムチャツキー の空港の天気 - METARとTAF

ペトロパブロフスク・カムチャツキー空港 ( UHPP / PKC ) - ロシア ペトロパブロフスク・カムチャツキー
飛行場実況気象(Metar)
観測時間01/20 13:00 MAGT (01/20 02:00 UTC)
風向・風速東北東 3m/s
視程10km以上
天気現象
全天の4割程度の雲 雲底高度 940m
気温3℃
湿度70%
気圧983hPa
METARUHPP 200200Z 06003MPS 9999 SCT031CB 03/M02 Q0983 R34L/821045 NOSIG RMK MT OBSC QFE734/0979
過去の天気等 Google飛行場航空写真 Wunderground天気予報

過去48時間のMETAR

飛行場予報(TAF)
発表時間: 1/20 09:45 MAGT (1/19 22:45 UTC)
予報対象時間: 20日11時 MAGT ~ 21日17時 MAGT
風向・風速北西 6m/s 瞬間風速 15m/s
視程5000m
天気現象弱いしゅう雪 低い地吹雪
全天の8割程度の積乱雲 雲底高度 610m
20日11時 MAGT ~ 20日17時 MAGT に一時的に
風向・風速東北東 8m/s 瞬間風速 23m/s
視程700m
天気現象強いしゅう雪 高い地吹雪
全天を覆う雲 鉛直視程 90m
20日17時 MAGT から
風向・風速東 7m/s 瞬間風速 18m/s
視程3100m
天気現象弱いしゅう雪 低い地吹雪
全天の8割程度の積乱雲 雲底高度 610m
20日17時 MAGT ~ 21日17時 MAGT に一時的に
風向・風速北東 8m/s 瞬間風速 22m/s
視程500m
天気現象強いしゅう雪 高い地吹雪
全天を覆う雲 鉛直視程 90m
TAF UHPP 192245Z 2000/2106 32006G15MPS 5000 -SHSN DRSN BKN020CB
TEMPO 2000/2006 07008G23MPS 0700 +SHSN BLSN VV003
FM200600 10007G18MPS 3100 -SHSN DRSN BKN020CB
TEMPO 2006/2106 05008G22MPS 0500 +SHSN BLSN VV003